createdAt,value
2018-03-15T00:00:48.504Z,0.00
2018-03-15T00:01:55.028Z,0.00
2018-03-15T00:02:59.539Z,0.00
2018-03-15T00:04:06.051Z,0.00
2018-03-15T00:05:10.555Z,0.00
2018-03-15T00:06:16.052Z,0.00
2018-03-15T00:07:22.588Z,0.00
2018-03-15T00:08:27.058Z,0.00
2018-03-15T00:09:33.597Z,0.00
2018-03-15T00:10:38.095Z,0.00
2018-03-15T00:11:43.586Z,0.00
2018-03-15T00:12:50.126Z,0.00
2018-03-15T00:13:54.610Z,0.00
2018-03-15T00:15:01.130Z,0.00
2018-03-15T00:16:05.631Z,0.00
2018-03-15T00:17:11.150Z,0.00
2018-03-15T00:18:17.657Z,0.00
2018-03-15T00:19:22.147Z,0.00
2018-03-15T00:20:28.669Z,0.00
2018-03-15T00:21:33.156Z,0.00
2018-03-15T00:22:38.673Z,0.00
2018-03-15T00:23:45.199Z,0.00
2018-03-15T00:24:49.682Z,0.00
2018-03-15T00:25:56.213Z,0.00
2018-03-15T00:27:00.720Z,0.00
2018-03-15T00:28:06.215Z,0.00
2018-03-15T00:29:12.735Z,0.00
2018-03-15T00:30:17.228Z,0.00
2018-03-15T00:31:23.825Z,0.00
2018-03-15T00:32:28.276Z,0.00
2018-03-15T00:33:33.748Z,0.00
2018-03-15T00:34:40.286Z,0.00
2018-03-15T00:35:44.777Z,0.00
2018-03-15T00:36:51.302Z,0.00
2018-03-15T00:37:55.786Z,0.00
2018-03-15T00:39:01.287Z,0.00
2018-03-15T00:40:07.846Z,0.00
2018-03-15T00:41:12.317Z,0.00
2018-03-15T00:42:18.827Z,0.00
2018-03-15T00:43:23.317Z,0.00
2018-03-15T00:44:28.824Z,0.00
2018-03-15T00:45:35.350Z,0.00
2018-03-15T00:46:39.844Z,0.00
2018-03-15T00:47:46.358Z,0.00
2018-03-15T00:48:50.849Z,0.00
2018-03-15T00:49:56.367Z,0.00
2018-03-15T00:51:02.889Z,0.00
2018-03-15T00:52:07.377Z,0.00
2018-03-15T00:53:13.895Z,0.00
2018-03-15T00:54:18.396Z,0.00
2018-03-15T00:55:23.899Z,0.00
2018-03-15T00:56:30.422Z,0.00
2018-03-15T00:57:34.948Z,0.00
2018-03-15T00:58:41.439Z,0.00
2018-03-15T00:59:45.934Z,0.00
2018-03-15T01:00:51.450Z,0.00
2018-03-15T01:01:57.970Z,0.00
2018-03-15T01:03:02.461Z,0.00
2018-03-15T01:04:08.970Z,0.00
2018-03-15T01:05:13.521Z,0.00
2018-03-15T01:06:18.988Z,0.00
2018-03-15T01:07:25.495Z,0.00
2018-03-15T01:08:29.995Z,0.00
2018-03-15T01:09:36.520Z,0.00
2018-03-15T01:10:41.128Z,0.00
2018-03-15T01:11:46.522Z,0.00
2018-03-15T01:12:53.068Z,0.00
2018-03-15T01:13:57.539Z,0.00
2018-03-15T01:15:04.050Z,0.00
2018-03-15T01:16:08.584Z,0.00
2018-03-15T01:17:14.069Z,0.00
2018-03-15T01:18:20.574Z,0.00
2018-03-15T01:19:25.101Z,0.00
2018-03-15T01:20:31.596Z,0.00
2018-03-15T01:21:36.086Z,0.00
2018-03-15T01:22:41.606Z,0.00
2018-03-15T01:23:48.113Z,0.00
2018-03-15T01:24:52.627Z,0.00
2018-03-15T01:25:59.124Z,0.00
2018-03-15T01:27:03.629Z,0.00
2018-03-15T01:28:09.130Z,0.00
2018-03-15T01:29:15.669Z,0.00
2018-03-15T01:30:20.160Z,0.00
2018-03-15T01:31:26.670Z,0.00
2018-03-15T01:32:31.165Z,0.00
2018-03-15T01:33:36.674Z,0.00
2018-03-15T01:34:43.194Z,0.00
2018-03-15T01:35:47.690Z,0.00
2018-03-15T01:36:54.220Z,0.00
2018-03-15T01:37:58.706Z,0.00
2018-03-15T01:39:04.209Z,0.00
2018-03-15T01:40:10.734Z,0.00
2018-03-15T01:41:15.245Z,0.00
2018-03-15T01:42:21.753Z,0.00
2018-03-15T01:43:26.244Z,0.00
2018-03-15T01:44:31.761Z,0.00
2018-03-15T01:45:38.278Z,0.00
2018-03-15T01:46:42.764Z,0.00
2018-03-15T01:47:49.293Z,0.00
2018-03-15T01:48:53.789Z,0.00
2018-03-15T01:49:59.293Z,0.00
2018-03-15T01:51:05.814Z,0.00
2018-03-15T01:52:10.327Z,0.00
2018-03-15T01:53:16.833Z,0.00
2018-03-15T01:54:21.330Z,0.00
2018-03-15T01:55:26.842Z,0.00
2018-03-15T01:56:33.359Z,0.00
2018-03-15T01:57:37.855Z,0.00
2018-03-15T01:58:44.378Z,0.00
2018-03-15T01:59:48.878Z,0.00
2018-03-15T02:00:54.382Z,0.00
2018-03-15T02:02:00.904Z,0.00
2018-03-15T02:03:05.395Z,0.00
2018-03-15T02:04:11.923Z,0.00
2018-03-15T02:05:16.420Z,0.00
2018-03-15T02:06:21.922Z,0.00
2018-03-15T02:07:28.443Z,0.00
2018-03-15T02:08:32.941Z,0.00
2018-03-15T02:09:39.481Z,0.00
2018-03-15T02:10:43.964Z,0.00
2018-03-15T02:11:49.472Z,0.00
2018-03-15T02:12:55.987Z,0.00
2018-03-15T02:14:00.482Z,0.00
2018-03-15T02:15:07.001Z,0.00
2018-03-15T02:16:11.503Z,0.00
2018-03-15T02:17:17.010Z,0.00
2018-03-15T02:18:23.534Z,0.00
2018-03-15T02:19:28.022Z,0.00
2018-03-15T02:20:34.545Z,0.00
2018-03-15T02:21:39.047Z,0.00
2018-03-15T02:22:44.552Z,0.00
2018-03-15T02:23:51.081Z,0.00
2018-03-15T02:24:55.572Z,0.00
2018-03-15T02:26:02.088Z,0.00
2018-03-15T02:27:06.585Z,0.00
2018-03-15T02:28:12.094Z,0.00
2018-03-15T02:29:18.617Z,0.00
2018-03-15T02:30:23.105Z,0.00
2018-03-15T02:31:29.637Z,0.00
2018-03-15T02:32:34.123Z,0.00
2018-03-15T02:33:39.627Z,0.00
2018-03-15T02:34:46.148Z,0.00
2018-03-15T02:35:50.651Z,0.00
2018-03-15T02:36:57.170Z,0.00
2018-03-15T02:38:01.671Z,0.00
2018-03-15T02:39:07.182Z,0.00
2018-03-15T02:40:13.693Z,0.00
2018-03-15T02:41:18.202Z,0.00
2018-03-15T02:42:24.707Z,0.00
2018-03-15T02:43:29.230Z,0.00
2018-03-15T02:44:34.726Z,0.00
2018-03-15T02:45:41.241Z,0.00
2018-03-15T02:46:45.729Z,0.00
2018-03-15T02:47:52.255Z,0.00
2018-03-15T02:48:56.750Z,0.00
2018-03-15T02:50:02.285Z,0.00
2018-03-15T02:51:08.818Z,0.00
2018-03-15T02:52:13.289Z,0.00
2018-03-15T02:53:19.802Z,0.00
2018-03-15T02:54:24.289Z,0.00
2018-03-15T02:55:29.808Z,0.00
2018-03-15T02:56:36.318Z,0.00
2018-03-15T02:57:40.838Z,0.00
2018-03-15T02:58:47.352Z,0.00
2018-03-15T02:59:51.841Z,0.00
2018-03-15T03:00:57.340Z,0.00
2018-03-15T03:02:03.866Z,0.00
2018-03-15T03:03:08.411Z,0.00
2018-03-15T03:04:14.887Z,0.00
2018-03-15T03:05:19.381Z,0.00
2018-03-15T03:06:24.907Z,0.00
2018-03-15T03:07:31.419Z,0.00
2018-03-15T03:08:35.905Z,0.00
2018-03-15T03:09:42.414Z,0.00
2018-03-15T03:10:46.927Z,0.00
2018-03-15T03:11:52.423Z,0.00
2018-03-15T03:12:58.958Z,0.00
2018-03-15T03:14:03.449Z,0.00
2018-03-15T03:15:09.961Z,0.00
2018-03-15T03:16:14.466Z,0.00
2018-03-15T03:17:19.965Z,0.00
2018-03-15T03:18:26.490Z,0.00
2018-03-15T03:19:30.983Z,0.00
2018-03-15T03:20:37.542Z,0.00
2018-03-15T03:21:42.000Z,0.00
2018-03-15T03:22:47.512Z,0.00
2018-03-15T03:23:54.023Z,0.00
2018-03-15T03:24:58.529Z,0.00
2018-03-15T03:26:05.038Z,0.00
2018-03-15T03:27:09.543Z,0.00
2018-03-15T03:28:15.085Z,0.00
2018-03-15T03:29:21.593Z,0.00
2018-03-15T03:30:26.075Z,0.00
2018-03-15T03:31:32.715Z,0.00
2018-03-15T03:32:37.087Z,0.00
2018-03-15T03:33:42.602Z,0.00
2018-03-15T03:34:49.110Z,0.00
2018-03-15T03:35:53.654Z,0.00
2018-03-15T03:37:00.141Z,0.00
2018-03-15T03:38:04.624Z,0.00
2018-03-15T03:39:10.132Z,0.00
2018-03-15T03:40:16.654Z,0.00
2018-03-15T03:41:21.154Z,0.00
2018-03-15T03:42:27.667Z,0.00
2018-03-15T03:43:32.172Z,0.00
2018-03-15T03:44:37.665Z,0.00
2018-03-15T03:45:44.196Z,0.00
2018-03-15T03:46:48.700Z,0.00
2018-03-15T03:47:55.206Z,0.00
2018-03-15T03:48:59.708Z,0.00
2018-03-15T03:50:05.215Z,0.00
2018-03-15T03:51:11.730Z,0.00
2018-03-15T03:52:16.237Z,0.00
2018-03-15T03:53:22.748Z,0.00
2018-03-15T03:54:27.248Z,0.00
2018-03-15T03:55:32.767Z,0.00
2018-03-15T03:56:39.280Z,0.00
2018-03-15T03:57:43.770Z,0.00
2018-03-15T03:58:50.291Z,0.00
2018-03-15T03:59:54.797Z,0.00
2018-03-15T04:01:00.311Z,0.00
2018-03-15T04:02:06.810Z,0.00
2018-03-15T04:03:11.328Z,0.00
2018-03-15T04:04:17.841Z,0.00
2018-03-15T04:05:22.333Z,0.00
2018-03-15T04:06:27.835Z,0.00
2018-03-15T04:07:34.356Z,0.00
2018-03-15T04:08:38.853Z,0.00
2018-03-15T04:09:45.376Z,0.00
2018-03-15T04:10:49.880Z,0.00
2018-03-15T04:11:55.381Z,0.00
2018-03-15T04:13:01.908Z,0.00
2018-03-15T04:14:06.394Z,0.00
2018-03-15T04:15:12.909Z,0.00
2018-03-15T04:16:17.421Z,0.00
2018-03-15T04:17:22.914Z,0.00
2018-03-15T04:18:29.437Z,0.00
2018-03-15T04:19:33.938Z,0.00
2018-03-15T04:20:40.456Z,0.00
2018-03-15T04:21:45.024Z,0.00
2018-03-15T04:22:50.450Z,0.00
2018-03-15T04:23:56.973Z,0.00
2018-03-15T04:25:01.476Z,0.00
2018-03-15T04:26:07.988Z,0.00
2018-03-15T04:27:12.616Z,0.00
2018-03-15T04:28:17.992Z,0.00
2018-03-15T04:29:24.520Z,0.00
2018-03-15T04:30:29.005Z,0.00
2018-03-15T04:31:35.527Z,0.00
2018-03-15T04:32:40.031Z,0.00
2018-03-15T04:33:45.536Z,0.00
2018-03-15T04:34:52.054Z,0.00
2018-03-15T04:35:56.561Z,0.00
2018-03-15T04:37:03.083Z,0.00
2018-03-15T04:38:07.578Z,0.00
2018-03-15T04:39:13.072Z,0.00
2018-03-15T04:40:19.598Z,0.00
2018-03-15T04:41:24.097Z,0.00
2018-03-15T04:42:30.612Z,0.00
2018-03-15T04:43:35.105Z,0.00
2018-03-15T04:44:40.613Z,0.00
2018-03-15T04:45:47.141Z,0.00
2018-03-15T04:46:51.630Z,0.00
2018-03-15T04:47:58.186Z,0.00
2018-03-15T04:49:02.647Z,0.00
2018-03-15T04:50:08.171Z,0.00
2018-03-15T04:51:14.686Z,0.00
2018-03-15T04:52:19.168Z,0.00
2018-03-15T04:53:25.696Z,0.00
2018-03-15T04:54:30.193Z,0.00
2018-03-15T04:55:35.704Z,0.00
2018-03-15T04:56:42.215Z,0.00
2018-03-15T04:57:46.718Z,0.00
2018-03-15T04:58:53.232Z,0.00
2018-03-15T04:59:57.732Z,0.00
2018-03-15T05:01:03.248Z,0.00
2018-03-15T05:02:09.761Z,0.00
2018-03-15T05:03:14.254Z,0.00
2018-03-15T05:04:20.774Z,0.00
2018-03-15T05:05:25.272Z,0.00
2018-03-15T05:06:30.788Z,0.00
2018-03-15T05:07:37.299Z,0.00
2018-03-15T05:08:41.802Z,0.00
2018-03-15T05:09:48.314Z,0.00
2018-03-15T05:10:52.816Z,0.00
2018-03-15T05:11:58.371Z,0.00
2018-03-15T05:13:04.840Z,0.00
2018-03-15T05:14:09.333Z,0.00
2018-03-15T05:15:15.865Z,0.00
2018-03-15T05:16:20.351Z,0.00
2018-03-15T05:17:25.871Z,0.00
2018-03-15T05:18:32.386Z,0.00
2018-03-15T05:19:36.871Z,0.00
2018-03-15T05:20:43.399Z,0.00
2018-03-15T05:21:47.900Z,0.00
2018-03-15T05:22:53.407Z,0.00
2018-03-15T05:23:59.936Z,0.00
2018-03-15T05:25:04.419Z,0.00
2018-03-15T05:26:10.946Z,0.00
2018-03-15T05:27:15.440Z,0.00
2018-03-15T05:28:20.951Z,0.00
2018-03-15T05:29:27.470Z,0.00
2018-03-15T05:30:31.960Z,0.00
2018-03-15T05:31:38.474Z,0.00
2018-03-15T05:32:42.973Z,0.00
2018-03-15T05:33:48.487Z,0.00
2018-03-15T05:34:55.019Z,0.00
2018-03-15T05:35:59.511Z,0.00
2018-03-15T05:37:06.046Z,0.00
2018-03-15T05:38:10.533Z,0.00
2018-03-15T05:39:16.033Z,0.00
2018-03-15T05:40:22.549Z,0.00
2018-03-15T05:41:27.062Z,0.00
2018-03-15T05:42:33.570Z,0.00
2018-03-15T05:43:38.059Z,0.00
2018-03-15T05:44:43.577Z,0.00
2018-03-15T05:45:50.102Z,0.00
2018-03-15T05:46:54.596Z,0.00
2018-03-15T05:48:01.113Z,0.00
2018-03-15T05:49:05.609Z,0.00
2018-03-15T05:50:11.117Z,0.00
2018-03-15T05:51:17.628Z,0.00
2018-03-15T05:52:22.129Z,0.00
2018-03-15T05:53:28.662Z,0.00
2018-03-15T05:54:33.149Z,0.00
2018-03-15T05:55:38.671Z,0.00
2018-03-15T05:56:45.216Z,0.00
2018-03-15T05:57:49.680Z,0.00
2018-03-15T05:58:56.186Z,0.00
2018-03-15T06:00:00.693Z,0.00
2018-03-15T06:01:06.231Z,5.63
2018-03-15T06:02:12.729Z,5.63
2018-03-15T06:03:17.229Z,5.63
2018-03-15T06:04:23.738Z,5.63
2018-03-15T06:05:28.234Z,5.63
2018-03-15T06:06:33.739Z,5.63
2018-03-15T06:07:40.265Z,0.00
2018-03-15T06:08:44.773Z,5.63
2018-03-15T06:09:51.283Z,5.63
2018-03-15T06:10:55.794Z,5.63
2018-03-15T06:12:01.287Z,5.63
2018-03-15T06:13:07.802Z,5.63
2018-03-15T06:14:12.303Z,5.63
2018-03-15T06:15:18.825Z,5.63
2018-03-15T06:16:23.317Z,5.63
2018-03-15T06:17:28.837Z,11.25
2018-03-15T06:18:35.348Z,11.25
2018-03-15T06:19:39.839Z,11.25
2018-03-15T06:20:46.361Z,11.25
2018-03-15T06:21:50.862Z,11.25
2018-03-15T06:22:56.365Z,11.25
2018-03-15T06:24:02.904Z,11.25
2018-03-15T06:25:07.389Z,11.25
2018-03-15T06:26:13.898Z,11.25
2018-03-15T06:27:18.398Z,11.25
2018-03-15T06:28:23.917Z,11.25
2018-03-15T06:29:30.429Z,11.25
2018-03-15T06:30:34.926Z,11.25
2018-03-15T06:31:41.442Z,11.25
2018-03-15T06:32:45.955Z,16.88
2018-03-15T06:33:51.554Z,16.88
2018-03-15T06:34:57.993Z,16.88
2018-03-15T06:36:02.473Z,16.88
2018-03-15T06:37:09.051Z,16.88
2018-03-15T06:38:13.489Z,16.88
2018-03-15T06:39:18.999Z,16.88
2018-03-15T06:40:25.619Z,16.88
2018-03-15T06:41:30.014Z,16.88
2018-03-15T06:42:36.528Z,16.88
2018-03-15T06:43:41.025Z,16.88
2018-03-15T06:44:46.536Z,16.88
2018-03-15T06:45:53.061Z,16.88
2018-03-15T06:46:57.548Z,16.88
2018-03-15T06:48:04.068Z,16.88
2018-03-15T06:49:08.572Z,16.88
2018-03-15T06:50:14.087Z,16.88
2018-03-15T06:51:20.624Z,22.50
2018-03-15T06:52:25.108Z,22.50
2018-03-15T06:53:31.627Z,16.88
2018-03-15T06:54:36.118Z,22.50
2018-03-15T06:55:41.644Z,22.50
2018-03-15T06:56:48.141Z,22.50
2018-03-15T06:57:52.666Z,22.50
2018-03-15T06:58:59.157Z,22.50
2018-03-15T07:00:03.663Z,22.50
2018-03-15T07:01:09.159Z,22.50
2018-03-15T07:02:15.680Z,22.50
2018-03-15T07:03:20.189Z,22.50
2018-03-15T07:04:26.692Z,22.50
2018-03-15T07:05:31.190Z,22.50
2018-03-15T07:06:36.710Z,22.50
2018-03-15T07:07:43.226Z,22.50
2018-03-15T07:08:47.728Z,22.50
2018-03-15T07:09:54.239Z,22.50
2018-03-15T07:10:58.748Z,22.50
2018-03-15T07:12:04.250Z,22.50
2018-03-15T07:13:10.767Z,22.50
2018-03-15T07:14:15.276Z,22.50
2018-03-15T07:15:21.787Z,22.50
2018-03-15T07:16:26.292Z,22.50
2018-03-15T07:17:31.790Z,22.50
2018-03-15T07:18:38.347Z,22.50
2018-03-15T07:19:42.804Z,22.50
2018-03-15T07:20:49.348Z,22.50
2018-03-15T07:21:53.827Z,22.50
2018-03-15T07:22:59.352Z,22.50
2018-03-15T07:24:05.868Z,28.13
2018-03-15T07:25:10.369Z,28.13
2018-03-15T07:26:16.874Z,28.13
2018-03-15T07:27:21.374Z,28.13
2018-03-15T07:28:26.884Z,22.50
2018-03-15T07:29:33.420Z,22.50
2018-03-15T07:30:37.908Z,22.50
2018-03-15T07:31:44.411Z,22.50
2018-03-15T07:32:48.928Z,22.50
2018-03-15T07:33:54.424Z,22.50
2018-03-15T07:35:00.953Z,22.50
2018-03-15T07:36:05.435Z,22.50
2018-03-15T07:37:11.955Z,22.50
2018-03-15T07:38:16.456Z,22.50
2018-03-15T07:39:22.033Z,22.50
2018-03-15T07:40:28.481Z,22.50
2018-03-15T07:41:32.992Z,22.50
2018-03-15T07:42:39.509Z,22.50
2018-03-15T07:43:44.023Z,28.13
2018-03-15T07:44:49.541Z,28.13
2018-03-15T07:45:56.059Z,28.13
2018-03-15T07:47:00.546Z,28.13
2018-03-15T07:48:07.073Z,28.13
2018-03-15T07:49:11.548Z,28.13
2018-03-15T07:50:17.075Z,28.13
2018-03-15T07:51:23.583Z,28.13
2018-03-15T07:52:28.149Z,28.13
2018-03-15T07:53:34.612Z,28.13
2018-03-15T07:54:39.102Z,28.13
2018-03-15T07:55:44.610Z,28.13
2018-03-15T07:56:51.127Z,28.13
2018-03-15T07:57:55.625Z,28.13
2018-03-15T07:59:02.159Z,28.13
2018-03-15T08:00:06.641Z,28.13
2018-03-15T08:01:12.167Z,28.13
2018-03-15T08:02:18.675Z,28.13
2018-03-15T08:03:23.177Z,28.13
2018-03-15T08:04:29.700Z,28.13
2018-03-15T08:05:34.206Z,28.13
2018-03-15T08:06:39.711Z,28.13
2018-03-15T08:07:46.228Z,28.13
2018-03-15T08:08:50.728Z,28.13
2018-03-15T08:09:57.247Z,28.13
2018-03-15T08:11:01.745Z,28.13
2018-03-15T08:12:07.264Z,28.13
2018-03-15T08:13:13.770Z,28.13
2018-03-15T08:14:18.270Z,28.13
2018-03-15T08:15:24.799Z,28.13
2018-03-15T08:16:29.308Z,28.13
2018-03-15T08:17:34.802Z,28.13
2018-03-15T08:18:41.318Z,28.13
2018-03-15T08:19:45.831Z,28.13
2018-03-15T08:20:52.432Z,28.13
2018-03-15T08:21:56.860Z,33.75
2018-03-15T08:23:02.353Z,33.75
2018-03-15T08:24:08.875Z,33.75
2018-03-15T08:25:13.443Z,33.75
2018-03-15T08:26:19.894Z,33.75
2018-03-15T08:27:24.411Z,39.38
2018-03-15T08:28:30.015Z,39.38
2018-03-15T08:29:36.435Z,39.38
2018-03-15T08:30:40.927Z,39.38
2018-03-15T08:31:47.439Z,39.38
2018-03-15T08:32:51.956Z,39.38
2018-03-15T08:33:57.459Z,39.38
2018-03-15T08:35:03.986Z,39.38
2018-03-15T08:36:08.487Z,39.38
2018-03-15T08:37:15.019Z,39.38
2018-03-15T08:38:19.507Z,39.38
2018-03-15T08:39:25.030Z,39.38
2018-03-15T08:40:31.529Z,39.38
2018-03-15T08:41:36.048Z,39.38
2018-03-15T08:42:42.552Z,39.38
2018-03-15T08:43:47.054Z,45.00
2018-03-15T08:44:52.549Z,45.00
2018-03-15T08:45:59.086Z,45.00
2018-03-15T08:47:03.582Z,45.00
2018-03-15T08:48:10.102Z,45.00
2018-03-15T08:49:14.602Z,45.00
2018-03-15T08:50:20.121Z,45.00
2018-03-15T08:51:26.629Z,45.00
2018-03-15T08:52:31.149Z,45.00
2018-03-15T08:53:37.654Z,45.00
2018-03-15T08:54:42.158Z,45.00
2018-03-15T08:55:47.664Z,45.00
2018-03-15T08:56:54.196Z,45.00
2018-03-15T08:57:58.692Z,45.00
2018-03-15T08:59:05.218Z,45.00
2018-03-15T09:00:09.717Z,45.00
2018-03-15T09:01:15.226Z,45.00
2018-03-15T09:02:21.750Z,45.00
2018-03-15T09:03:26.263Z,45.00
2018-03-15T09:04:32.767Z,45.00
2018-03-15T09:05:37.457Z,45.00
2018-03-15T09:06:42.794Z,45.00
2018-03-15T09:07:49.298Z,50.63
2018-03-15T09:08:53.926Z,50.63
2018-03-15T09:10:00.331Z,50.63
2018-03-15T09:11:04.866Z,50.63
2018-03-15T09:12:10.341Z,50.63
2018-03-15T09:13:16.860Z,50.63
2018-03-15T09:14:21.370Z,50.63
2018-03-15T09:15:27.905Z,50.63
2018-03-15T09:16:32.381Z,50.63
2018-03-15T09:17:37.887Z,50.63
2018-03-15T09:18:44.446Z,50.63
2018-03-15T09:19:48.912Z,50.63
2018-03-15T09:20:55.443Z,50.63
2018-03-15T09:21:59.946Z,50.63
2018-03-15T09:23:05.500Z,50.63
2018-03-15T09:24:11.975Z,50.63
2018-03-15T09:25:16.485Z,50.63
2018-03-15T09:26:22.999Z,56.25
2018-03-15T09:27:27.502Z,56.25
2018-03-15T09:28:33.016Z,56.25
2018-03-15T09:29:39.542Z,56.25
2018-03-15T09:30:44.076Z,56.25
2018-03-15T09:31:50.564Z,56.25
2018-03-15T09:32:55.069Z,56.25
2018-03-15T09:34:00.593Z,56.25
2018-03-15T09:35:07.095Z,56.25
2018-03-15T09:36:11.620Z,56.25
2018-03-15T09:37:18.130Z,56.25
2018-03-15T09:38:22.628Z,56.25
2018-03-15T09:39:28.158Z,56.25
2018-03-15T09:40:34.692Z,56.25
2018-03-15T09:41:39.181Z,56.25
2018-03-15T09:42:45.684Z,56.25
2018-03-15T09:43:50.197Z,56.25
2018-03-15T09:44:55.701Z,56.25
2018-03-15T09:46:02.230Z,56.25
2018-03-15T09:47:06.729Z,56.25
2018-03-15T09:48:13.243Z,56.25
2018-03-15T09:49:17.759Z,56.25
2018-03-15T09:50:23.275Z,56.25
2018-03-15T09:51:29.784Z,61.88
2018-03-15T09:52:34.281Z,61.88
2018-03-15T09:53:40.814Z,61.88
2018-03-15T09:54:45.316Z,61.88
2018-03-15T09:55:50.834Z,61.88
2018-03-15T09:56:58.481Z,61.88
2018-03-15T09:58:01.898Z,67.50
2018-03-15T09:59:08.392Z,67.50
2018-03-15T10:00:12.902Z,61.88
2018-03-15T10:01:18.403Z,61.88
2018-03-15T10:02:24.912Z,67.50
2018-03-15T10:03:29.427Z,67.50
2018-03-15T10:04:35.940Z,61.88
2018-03-15T10:05:40.442Z,67.50
2018-03-15T10:06:45.945Z,67.50
2018-03-15T10:07:52.473Z,67.50
2018-03-15T10:08:56.971Z,67.50
2018-03-15T10:10:03.504Z,67.50
2018-03-15T10:11:08.009Z,67.50
2018-03-15T10:12:13.517Z,67.50
2018-03-15T10:13:20.042Z,67.50
2018-03-15T10:14:24.535Z,67.50
2018-03-15T10:15:31.072Z,67.50
2018-03-15T10:16:35.563Z,67.50
2018-03-15T10:17:41.069Z,67.50
2018-03-15T10:18:47.624Z,67.50
2018-03-15T10:19:52.106Z,67.50
2018-03-15T10:20:58.773Z,67.50
2018-03-15T10:22:03.216Z,67.50
2018-03-15T10:23:08.638Z,67.50
2018-03-15T10:24:15.168Z,67.50
2018-03-15T10:25:26.389Z,67.50
2018-03-15T10:26:26.199Z,67.50
2018-03-15T10:27:30.787Z,67.50
2018-03-15T10:28:36.215Z,67.50
2018-03-15T10:29:42.741Z,67.50
2018-03-15T10:30:47.242Z,67.50
2018-03-15T10:31:53.767Z,67.50
2018-03-15T10:32:58.268Z,67.50
2018-03-15T10:34:03.775Z,67.50
2018-03-15T10:35:10.312Z,73.13
2018-03-15T10:36:14.811Z,73.13
2018-03-15T10:37:21.367Z,73.13
2018-03-15T10:38:25.839Z,73.13
2018-03-15T10:39:31.535Z,73.13
2018-03-15T10:40:37.886Z,73.13
2018-03-15T10:41:43.265Z,73.13
2018-03-15T10:42:48.908Z,73.13
2018-03-15T10:43:53.406Z,78.75
2018-03-15T10:44:58.920Z,78.75
2018-03-15T10:46:05.437Z,78.75
2018-03-15T10:47:09.936Z,78.75
2018-03-15T10:48:16.492Z,78.75
2018-03-15T10:49:20.970Z,84.38
2018-03-15T10:50:27.120Z,84.38
2018-03-15T10:51:33.011Z,84.38
2018-03-15T10:52:37.632Z,90.00
2018-03-15T10:53:44.068Z,84.38
2018-03-15T10:54:48.561Z,84.38
2018-03-15T10:55:54.045Z,78.75
2018-03-15T10:57:00.586Z,84.38
2018-03-15T10:58:05.084Z,84.38
2018-03-15T10:59:11.630Z,84.38
2018-03-15T11:00:16.107Z,84.38
2018-03-15T11:01:21.616Z,78.75
2018-03-15T11:02:28.161Z,78.75
2018-03-15T11:03:32.669Z,84.38
2018-03-15T11:04:39.200Z,84.38
2018-03-15T11:05:43.775Z,84.38
2018-03-15T11:06:49.210Z,84.38
2018-03-15T11:07:55.722Z,90.00
2018-03-15T11:09:00.266Z,90.00
2018-03-15T11:10:06.757Z,90.00
2018-03-15T11:11:11.269Z,90.00
2018-03-15T11:12:16.769Z,90.00
2018-03-15T11:13:23.294Z,90.00
2018-03-15T11:14:27.792Z,84.38
2018-03-15T11:15:34.326Z,90.00
2018-03-15T11:16:38.852Z,90.00
2018-03-15T11:17:44.344Z,90.00
2018-03-15T11:18:50.885Z,90.00
2018-03-15T11:19:55.359Z,84.38
2018-03-15T11:21:01.921Z,90.00
2018-03-15T11:22:06.492Z,90.00
2018-03-15T11:23:11.932Z,90.00
2018-03-15T11:24:18.447Z,90.00
2018-03-15T11:25:22.979Z,90.00
2018-03-15T11:26:29.500Z,90.00
2018-03-15T11:27:34.018Z,90.00
2018-03-15T11:28:39.514Z,95.63
2018-03-15T11:29:46.015Z,95.63
2018-03-15T11:30:50.527Z,95.63
2018-03-15T11:31:57.040Z,95.63
2018-03-15T11:33:01.543Z,101.25
2018-03-15T11:34:07.058Z,101.25
2018-03-15T11:35:13.593Z,84.38
2018-03-15T11:36:18.138Z,106.88
2018-03-15T11:37:24.667Z,106.88
2018-03-15T11:38:29.116Z,106.88
2018-03-15T11:39:34.653Z,112.50
2018-03-15T11:40:41.161Z,112.50
2018-03-15T11:41:45.664Z,112.50
2018-03-15T11:42:52.196Z,112.50
2018-03-15T11:43:56.689Z,112.50
2018-03-15T11:45:02.250Z,112.50
2018-03-15T11:46:08.745Z,112.50
2018-03-15T11:47:13.240Z,112.50
2018-03-15T11:48:19.794Z,112.50
2018-03-15T11:49:24.269Z,106.88
2018-03-15T11:50:29.792Z,106.88
2018-03-15T11:51:36.307Z,106.88
2018-03-15T11:52:40.829Z,106.88
2018-03-15T11:53:47.338Z,106.88
2018-03-15T11:54:51.848Z,112.50
2018-03-15T11:55:57.361Z,112.50
2018-03-15T11:57:03.898Z,112.50
2018-03-15T11:58:08.391Z,112.50
2018-03-15T11:59:14.933Z,112.50
2018-03-15T12:00:19.509Z,112.50
2018-03-15T12:01:24.953Z,112.50
2018-03-15T12:02:31.474Z,112.50
2018-03-15T12:03:35.964Z,112.50
2018-03-15T12:04:42.499Z,112.50
2018-03-15T12:05:46.998Z,118.13
2018-03-15T12:06:52.517Z,118.13
2018-03-15T12:07:59.055Z,118.13
2018-03-15T12:09:03.545Z,118.13
2018-03-15T12:10:10.076Z,118.13
2018-03-15T12:11:14.574Z,118.13
2018-03-15T12:12:20.099Z,118.13
2018-03-15T12:13:26.639Z,118.13
2018-03-15T12:14:31.141Z,112.50
2018-03-15T12:15:37.652Z,112.50
2018-03-15T12:16:42.153Z,118.13
2018-03-15T12:17:47.674Z,112.50
2018-03-15T12:18:54.203Z,123.75
2018-03-15T12:19:58.708Z,118.13
2018-03-15T12:21:05.236Z,118.13
2018-03-15T12:22:09.744Z,123.75
2018-03-15T12:23:15.251Z,123.75
2018-03-15T12:24:21.771Z,129.38
2018-03-15T12:25:26.333Z,135.00
2018-03-15T12:26:32.800Z,135.00
2018-03-15T12:27:37.309Z,123.75
2018-03-15T12:28:42.832Z,129.38
2018-03-15T12:29:49.347Z,135.00
2018-03-15T12:30:53.863Z,140.63
2018-03-15T12:32:00.377Z,146.25
2018-03-15T12:33:04.893Z,146.25
2018-03-15T12:34:10.413Z,151.88
2018-03-15T12:35:16.932Z,151.88
2018-03-15T12:36:21.434Z,163.13
2018-03-15T12:37:27.988Z,163.13
2018-03-15T12:38:32.471Z,163.13
2018-03-15T12:39:37.991Z,163.13
2018-03-15T12:40:44.508Z,163.13
2018-03-15T12:41:49.015Z,168.75
2018-03-15T12:42:55.551Z,168.75
2018-03-15T12:44:00.056Z,163.13
2018-03-15T12:45:05.564Z,163.13
2018-03-15T12:46:12.092Z,163.13
2018-03-15T12:47:16.608Z,157.50
2018-03-15T12:48:23.141Z,168.75
2018-03-15T12:49:27.626Z,157.50
2018-03-15T12:50:33.142Z,157.50
2018-03-15T12:51:39.677Z,151.88
2018-03-15T12:52:44.202Z,151.88
2018-03-15T12:53:50.721Z,151.88
2018-03-15T12:54:55.392Z,151.88
2018-03-15T12:56:00.746Z,151.88
2018-03-15T12:57:07.354Z,157.50
2018-03-15T12:58:11.778Z,157.50
2018-03-15T12:59:18.343Z,157.50
2018-03-15T13:00:22.809Z,157.50
2018-03-15T13:01:28.316Z,157.50
2018-03-15T13:02:34.851Z,163.13
2018-03-15T13:03:39.353Z,168.75
2018-03-15T13:04:45.876Z,157.50
2018-03-15T13:05:50.408Z,163.13
2018-03-15T13:06:55.921Z,174.38
2018-03-15T13:08:02.435Z,185.63
2018-03-15T13:09:06.946Z,196.88
2018-03-15T13:10:13.492Z,208.13
2018-03-15T13:11:17.973Z,213.75
2018-03-15T13:12:23.486Z,219.38
2018-03-15T13:13:30.020Z,225.00
2018-03-15T13:14:34.538Z,230.63
2018-03-15T13:15:41.063Z,225.00
2018-03-15T13:16:45.560Z,219.38
2018-03-15T13:17:51.104Z,219.38
2018-03-15T13:18:57.607Z,219.38
2018-03-15T13:20:02.133Z,225.00
2018-03-15T13:21:08.649Z,202.50
2018-03-15T13:22:13.162Z,163.13
2018-03-15T13:23:18.660Z,185.63
2018-03-15T13:24:25.218Z,191.25
2018-03-15T13:25:29.720Z,185.63
2018-03-15T13:26:36.242Z,174.38
2018-03-15T13:27:40.822Z,180.00
2018-03-15T13:28:46.257Z,163.13
2018-03-15T13:29:52.778Z,163.13
2018-03-15T13:30:57.297Z,163.13
2018-03-15T13:32:03.854Z,151.88
2018-03-15T13:33:08.364Z,163.13
2018-03-15T13:34:13.859Z,168.75
2018-03-15T13:35:20.381Z,163.13
2018-03-15T13:36:24.912Z,135.00
2018-03-15T13:37:31.423Z,112.50
2018-03-15T13:38:35.926Z,106.88
2018-03-15T13:39:41.428Z,106.88
2018-03-15T13:40:47.955Z,90.00
2018-03-15T13:41:52.483Z,90.00
2018-03-15T13:42:59.020Z,84.38
2018-03-15T13:44:03.507Z,84.38
2018-03-15T13:45:09.026Z,95.63
2018-03-15T13:46:15.552Z,90.00
2018-03-15T13:47:20.059Z,84.38
2018-03-15T13:48:26.594Z,84.38
2018-03-15T13:49:31.089Z,78.75
2018-03-15T13:50:36.625Z,78.75
2018-03-15T13:51:43.126Z,73.13
2018-03-15T13:52:47.634Z,73.13
2018-03-15T13:53:54.156Z,73.13
2018-03-15T13:54:58.689Z,73.13
2018-03-15T13:56:04.181Z,73.13
2018-03-15T13:57:10.725Z,73.13
2018-03-15T13:58:15.243Z,73.13
2018-03-15T13:59:21.841Z,73.13
2018-03-15T14:00:26.280Z,73.13
2018-03-15T14:01:31.783Z,73.13
2018-03-15T14:02:38.336Z,73.13
2018-03-15T14:03:42.870Z,73.13
2018-03-15T14:04:49.330Z,73.13
2018-03-15T14:05:53.851Z,67.50
2018-03-15T14:06:59.354Z,67.50
2018-03-15T14:08:05.878Z,56.25
2018-03-15T14:09:10.391Z,67.50
2018-03-15T14:10:16.907Z,61.88
2018-03-15T14:11:21.571Z,61.88
2018-03-15T14:12:26.933Z,56.25